Naniwa Maru No.21 — JG5648 — position and weather

sailwx.info

Track history (hours):
 
Tides and Currents Weather Stations Pressure Air Temp Water Temp Dewpoint Dewpoint Depression Visibility Wind Speed Wind Dir Waves Ship Positions

Naniwa Maru No.21

Last reported at 2018-Feb-21 09:35 UTC. Time now 2018-Feb-22 03:34 UTC.
Position N 34°28' E 134°31'.

Length 71 m; draft 5.5 m.

Type: Tanker. MMSI: 431301595.

Date/timePositionNaut miles runAvg speedWind from/ knotsBaromVisibWave heightAir tempDewpointWater temp
2018-Feb-21 09:35N 34°28' E 134°31'113.4
2018-Feb-21 09:30N 34°28' E 134°32'1213.1
2018-Feb-21 08:35N 34°33' E 134°45'312.4
2018-Feb-21 08:23N 34°34' E 134°48'511.5
2018-Feb-21 07:59N 34°36' E 134°53'511.3
2018-Feb-21 07:30N 34°37' E 134°60'510.5
2018-Feb-21 07:00N 34°35' E 135°05'612.8
2018-Feb-21 06:30N 34°28' E 135°04'713.1
2018-Feb-21 06:00N 34°22' E 135°02'612.6
2018-Feb-21 05:30N 34°16' E 134°59'713.2
2018-Feb-21 05:00N 34°11' E 135°04'5 1.4
2018-Feb-21 01:41N 34°07' E 135°08'0 1.1
2018-Feb-21 01:30N 34°07' E 135°08'0 0.4
2018-Feb-21 01:01N 34°07' E 135°08'0 0.0
2018-Feb-21 00:29N 34°07' E 135°08'0 0.0
2018-Feb-21 00:00N 34°07' E 135°08'0 0.1
2018-Feb-20 23:30N 34°07' E 135°07'1 1.7
2018-Feb-20 22:59N 34°08' E 135°06'713.5
2018-Feb-20 22:30N 34°08' E 134°58'713.4
2018-Feb-20 21:59N 34°08' E 134°50'1013.7
2018-Feb-20 21:16N 34°13' E 134°40'414.2
2018-Feb-20 21:00N 34°16' E 134°37'713.9
2018-Feb-20 20:30N 34°18' E 134°29'8813.1
2018-Feb-20 13:48N 34°01' E 132°45'514.9
2018-Feb-20 13:30N 33°57' E 132°42'5313.1
2018-Feb-20 09:27N 33°46' E 131°40'614.1
2018-Feb-20 09:00N 33°47' E 131°32'714.3
2018-Feb-20 08:30N 33°49' E 131°24'714.3
2018-Feb-20 08:00N 33°50' E 131°15'714.3
2018-Feb-20 07:30N 33°54' E 131°08'714.2
2018-Feb-20 07:00N 33°58' E 131°01'510.2
2018-Feb-20 06:30N 33°55' E 130°56'4 8.8
2018-Feb-20 06:00N 33°57' E 130°51'613.2
2018-Feb-20 05:31N 33°58' E 130°43'713.9
2018-Feb-20 05:00N 33°57' E 130°35'712.8
2018-Feb-20 04:30N 33°54' E 130°28'713.8
2018-Feb-20 04:00N 33°49' E 130°23'713.3
2018-Feb-20 03:28N 33°43' E 130°17'511.0
2018-Feb-20 03:00N 33°38' E 130°19'4 7.3
2018-Feb-20 02:31N 33°36' E 130°23'0 0.0
2018-Feb-20 02:01N 33°36' E 130°23'0 0.0
2018-Feb-20 01:31N 33°36' E 130°23'0 0.0
2018-Feb-20 00:58N 33°36' E 130°23'0 0.0
2018-Feb-20 00:28N 33°36' E 130°23'0 0.0
2018-Feb-19 23:58N 33°36' E 130°23'1 1.7
2018-Feb-19 23:30N 33°37' E 130°23'2 2.8
2018-Feb-19 22:57N 33°37' E 130°21'0 0.1
2018-Feb-19 22:27N 33°37' E 130°21'0 0.0
2018-Feb-19 21:57N 33°37' E 130°21'0 0.0
2018-Feb-19 21:21N 33°37' E 130°21'0 0.1
2018-Feb-19 20:57N 33°37' E 130°21'0 0.0
2018-Feb-19 20:27N 33°37' E 130°21'2 4.4
2018-Feb-19 20:00N 33°38' E 130°19'611.2
2018-Feb-19 19:30N 33°43' E 130°16'613.2
2018-Feb-19 19:00N 33°49' E 130°19'612.9
2018-Feb-19 18:30N 33°55' E 130°23'612.5
2018-Feb-19 18:00N 33°58' E 130°29'713.0
2018-Feb-19 17:30N 34°01' E 130°37'613.1
2018-Feb-19 17:00N 34°02' E 130°44'611.7
2018-Feb-19 16:30N 33°60' E 130°51'612.8
2018-Feb-19 16:00N 33°54' E 130°55'612.4
2018-Feb-19 15:30N 33°59' E 131°00'611.6
2018-Feb-19 15:00N 33°55' E 131°06'713.2
2018-Feb-19 14:30N 33°52' E 131°13'713.5
2018-Feb-19 14:00N 33°50' E 131°21'712.9
2018-Feb-19 13:28N 33°47' E 131°28'613.6
2018-Feb-19 13:00N 33°44' E 131°35'713.8
2018-Feb-19 12:29N 33°40' E 131°42'714.0
2018-Feb-19 12:00N 33°35' E 131°47'714.5
2018-Feb-19 11:30N 33°27' E 131°47'713.7
2018-Feb-19 10:59N 33°21' E 131°43'4 0.9
2018-Feb-19 06:42N 33°18' E 131°41'4 0.6
2018-Feb-18 23:50N 33°22' E 131°42'0 0.4
2018-Feb-18 23:02N 33°22' E 131°42'112.2
2018-Feb-18 22:58N 33°22' E 131°43'16310.3
2018-Feb-18 07:06N 33°56' E 134°55'114.0
2018-Feb-18 07:00N 33°57' E 134°56'714.0
2018-Feb-18 06:29N 34°03' E 135°02'613.2
2018-Feb-18 06:00N 34°07' E 135°07'0 0.9
2018-Feb-18 05:28N 34°07' E 135°07'0 0.0
2018-Feb-18 04:58N 34°07' E 135°07'0 0.0
2018-Feb-18 04:25N 34°07' E 135°07'0 0.0
2018-Feb-18 03:58N 34°07' E 135°07'0 0.3
2018-Feb-18 03:29N 34°07' E 135°07'510.3
2018-Feb-18 03:00N 34°08' E 135°01'713.2
2018-Feb-18 02:30N 34°08' E 134°53'713.3
2018-Feb-18 02:00N 34°09' E 134°46'813.3
2018-Feb-18 01:22N 34°15' E 134°38'613.3
2018-Feb-18 00:57N 34°17' E 134°32'3 7.5
2018-Feb-18 00:29N 34°20' E 134°30'511.6
2018-Feb-18 00:00N 34°20' E 134°23'8411.1
2018-Feb-17 16:26N 33°60' E 132°45'713.0
2018-Feb-17 15:56N 33°55' E 132°39'5412.6
2018-Feb-17 11:37N 33°47' E 131°35'213.1
2018-Feb-17 11:30N 33°47' E 131°33'713.1
2018-Feb-17 11:00N 33°48' E 131°25'613.0
2018-Feb-17 10:30N 33°50' E 131°18'612.9
2018-Feb-17 10:00N 33°52' E 131°10'613.0
2018-Feb-17 09:30N 33°56' E 131°04'2 4.3
2018-Feb-17 09:00N 33°57' E 131°02'0 0.0
2018-Feb-17 08:31N 33°57' E 131°02'0 0.6
2018-Feb-17 08:01N 33°57' E 131°02'510.6
2018-Feb-17 07:30N 33°55' E 130°56'611.8
2018-Feb-17 07:00N 33°58' E 130°49'713.5
2018-Feb-17 06:30N 33°57' E 130°41'613.1
2018-Feb-17 06:01N 33°56' E 130°34'612.3
2018-Feb-17 05:30N 33°53' E 130°27'713.4
2018-Feb-17 04:59N 33°48' E 130°22'713.7
2018-Feb-17 04:30N 33°43' E 130°17'611.9
2018-Feb-17 04:00N 33°38' E 130°21'2 4.7
2018-Feb-17 03:31N 33°36' E 130°23'0 0.0
2018-Feb-17 02:59N 33°36' E 130°23'0 0.0
2018-Feb-17 02:30N 33°36' E 130°23'0 0.0
2018-Feb-17 02:00N 33°36' E 130°23'0 0.0
2018-Feb-17 01:31N 33°36' E 130°23'0 0.0
2018-Feb-17 00:56N 33°36' E 130°23'0 0.0
2018-Feb-17 00:26N 33°36' E 130°23'1 2.2
2018-Feb-17 00:00N 33°37' E 130°23'612.6
2018-Feb-16 23:30N 33°40' E 130°17'611.7
2018-Feb-16 23:00N 33°46' E 130°20'713.6
2018-Feb-16 22:30N 33°51' E 130°25'713.1
2018-Feb-16 22:00N 33°56' E 130°30'713.0
2018-Feb-16 21:30N 33°59' E 130°37'712.5
2018-Feb-16 20:57N 34°02' E 130°44'511.4
2018-Feb-16 20:30N 34°01' E 130°50'511.0
2018-Feb-16 20:00N 33°56' E 130°53'3 6.1
2018-Feb-16 19:30N 33°56' E 130°56'4 7.7
2018-Feb-16 19:00N 33°59' E 130°60'611.3
2018-Feb-16 18:30N 33°56' E 131°05'612.1
2018-Feb-16 18:00N 33°52' E 131°11'612.2
2018-Feb-16 17:30N 33°51' E 131°19'612.3
2018-Feb-16 17:00N 33°50' E 131°26'612.3
2018-Feb-16 16:30N 33°48' E 131°33'612.0
2018-Feb-16 16:00N 33°47' E 131°40'612.1
2018-Feb-16 15:30N 33°45' E 131°47'51 1.8
2018-Feb-15 10:32N 34°01' E 132°46'115.1
2018-Feb-15 10:27N 34°00' E 132°45'614.2
2018-Feb-15 10:00N 33°56' E 132°40'5212.8
2018-Feb-15 05:56N 33°46' E 131°38'714.1
2018-Feb-15 05:28N 33°48' E 131°30'714.2
2018-Feb-15 05:00N 33°49' E 131°22'714.1
2018-Feb-15 04:30N 33°51' E 131°14'713.9
2018-Feb-15 04:00N 33°54' E 131°07'713.6
2018-Feb-15 03:30N 33°59' E 131°00'5 9.9
2018-Feb-15 03:00N 33°55' E 130°56'4 7.7
2018-Feb-15 02:30N 33°57' E 130°52'612.7
2018-Feb-15 02:00N 33°58' E 130°44'713.5
2018-Feb-15 01:30N 33°57' E 130°36'713.2
2018-Feb-15 01:00N 33°56' E 130°28'713.5
2018-Feb-15 00:30N 33°50' E 130°24'713.2
2018-Feb-14 23:59N 33°45' E 130°18'511.1
2018-Feb-14 23:30N 33°39' E 130°18'511.0
2018-Feb-14 23:00N 33°36' E 130°23'0 0.1
2018-Feb-14 22:28N 33°36' E 130°23'0 0.0
2018-Feb-14 21:58N 33°36' E 130°23'0 0.0
2018-Feb-14 21:28N 33°36' E 130°23'0 0.0
2018-Feb-14 20:58N 33°36' E 130°23'0 0.0
2018-Feb-14 20:28N 33°36' E 130°23'0 0.0
2018-Feb-14 19:58N 33°36' E 130°23'0 0.0
2018-Feb-14 19:28N 33°36' E 130°23'0 0.0
2018-Feb-14 18:58N 33°36' E 130°23'0 0.0
2018-Feb-14 18:28N 33°36' E 130°23'0 0.0
2018-Feb-14 17:58N 33°36' E 130°23'0 0.0
2018-Feb-14 17:28N 33°36' E 130°23'0 0.0
2018-Feb-14 16:58N 33°36' E 130°23'0 0.0
2018-Feb-14 16:28N 33°36' E 130°23'0 0.0
2018-Feb-14 15:58N 33°36' E 130°23'0 0.0
2018-Feb-14 15:28N 33°36' E 130°23'0 0.0
2018-Feb-14 14:58N 33°36' E 130°23'0 0.0
2018-Feb-14 14:28N 33°36' E 130°23'0 0.0
2018-Feb-14 13:58N 33°36' E 130°23'0 0.0
2018-Feb-14 13:28N 33°36' E 130°23'0 0.0
2018-Feb-14 12:58N 33°36' E 130°23'0 0.0
2018-Feb-14 12:28N 33°36' E 130°23'0 0.0
2018-Feb-14 11:58N 33°36' E 130°23'0 0.0
2018-Feb-14 11:28N 33°36' E 130°23'0 0.0
2018-Feb-14 10:58N 33°36' E 130°23'0 0.0
2018-Feb-14 10:28N 33°36' E 130°23'0 0.0
2018-Feb-14 09:58N 33°36' E 130°23'0 0.0
2018-Feb-14 09:28N 33°36' E 130°23'0 0.0
2018-Feb-14 08:58N 33°36' E 130°23'0 0.0
2018-Feb-14 08:28N 33°36' E 130°23'0 0.0
2018-Feb-14 07:58N 33°36' E 130°23'0 0.0
2018-Feb-14 07:28N 33°36' E 130°23'0 0.0
2018-Feb-14 06:58N 33°36' E 130°23'0 0.0
2018-Feb-14 06:28N 33°36' E 130°23'0 0.0
2018-Feb-14 05:58N 33°36' E 130°23'0 0.2
2018-Feb-14 05:29N 33°36' E 130°23'2 3.2
2018-Feb-14 05:00N 33°37' E 130°22'1 2.8
2018-Feb-14 04:30N 33°36' E 130°23'0 0.0
2018-Feb-14 03:59N 33°36' E 130°23'0 0.0
2018-Feb-14 03:29N 33°36' E 130°23'0 0.0
2018-Feb-14 02:59N 33°36' E 130°23'0 0.0
2018-Feb-14 02:29N 33°36' E 130°23'0 0.0
2018-Feb-14 02:00N 33°36' E 130°23'3 6.6
2018-Feb-14 01:30N 33°38' E 130°20'510.8
2018-Feb-14 01:00N 33°43' E 130°17'713.2
2018-Feb-14 00:30N 33°48' E 130°22'712.8
2018-Feb-14 00:00N 33°53' E 130°27'612.2
2018-Feb-13 23:31N 33°57' E 130°32'713.3
2018-Feb-13 22:59N 34°01' E 130°39'613.1
2018-Feb-13 22:31N 34°02' E 130°46'510.8
2018-Feb-13 22:00N 33°58' E 130°50'510.3
2018-Feb-13 21:30N 33°56' E 130°56'5 9.7
2018-Feb-13 21:00N 33°59' E 131°00'713.3
2018-Feb-13 20:31N 33°55' E 131°07'713.4
2018-Feb-13 20:00N 33°52' E 131°14'714.1
2018-Feb-13 19:30N 33°50' E 131°23'713.9
2018-Feb-13 19:00N 33°49' E 131°31'713.9
2018-Feb-13 18:30N 33°47' E 131°39'713.6
2018-Feb-13 18:00N 33°46' E 131°47'2013.5
2018-Feb-13 16:29N 33°43' E 132°11'33 1.2
2018-Feb-12 13:29N 33°60' E 132°45'713.5
2018-Feb-12 12:59N 33°55' E 132°39'5612.9
2018-Feb-12 08:36N 33°48' E 131°32'113.5
2018-Feb-12 08:30N 33°48' E 131°30'713.6
2018-Feb-12 08:00N 33°49' E 131°22'713.7
2018-Feb-12 07:30N 33°51' E 131°14'713.5
2018-Feb-12 07:00N 33°54' E 131°07'713.5
2018-Feb-12 06:30N 33°58' E 131°01'713.6
2018-Feb-12 06:00N 33°54' E 130°54'713.5
2018-Feb-12 05:30N 33°58' E 130°47'713.8
2018-Feb-12 05:01N 33°57' E 130°39'713.8
2018-Feb-12 04:31N 33°56' E 130°31'612.4
2018-Feb-12 04:00N 33°51' E 130°26'714.0
2018-Feb-12 03:30N 33°46' E 130°20'612.3
2018-Feb-12 03:00N 33°41' E 130°17'611.9
2018-Feb-12 02:30N 33°37' E 130°22'1 2.1
2018-Feb-12 01:59N 33°36' E 130°23'0 0.0
2018-Feb-12 01:28N 33°36' E 130°23'0 0.0
2018-Feb-12 00:58N 33°36' E 130°23'0 0.0
2018-Feb-12 00:28N 33°36' E 130°23'0 0.0
2018-Feb-11 23:58N 33°36' E 130°23'0 0.0
2018-Feb-11 23:28N 33°36' E 130°23'0 0.0
2018-Feb-11 22:58N 33°36' E 130°23'1 2.0
2018-Feb-11 22:30N 33°37' E 130°23'1 2.8
2018-Feb-11 22:00N 33°37' E 130°21'0 0.0
2018-Feb-11 21:25N 33°37' E 130°21'0 0.0
2018-Feb-11 20:55N 33°37' E 130°21'0 0.0
2018-Feb-11 20:25N 33°37' E 130°21'0 0.0
2018-Feb-11 19:55N 33°37' E 130°21'0 0.0
2018-Feb-11 19:25N 33°37' E 130°21'0 0.0
2018-Feb-11 18:56N 33°37' E 130°21'2 3.7
2018-Feb-11 18:30N 33°38' E 130°20'611.8
2018-Feb-11 18:00N 33°43' E 130°16'612.0
2018-Feb-11 17:30N 33°49' E 130°19'611.8
2018-Feb-11 17:00N 33°54' E 130°22'510.2
2018-Feb-11 16:30N 33°57' E 130°27'5 9.8
2018-Feb-11 16:00N 33°59' E 130°32'5 9.8
2018-Feb-11 15:30N 34°01' E 130°38'510.4
2018-Feb-11 15:00N 34°02' E 130°44'510.6
2018-Feb-11 14:30N 34°02' E 130°50'611.1
2018-Feb-11 14:00N 33°56' E 130°53'3 6.4
2018-Feb-11 13:30N 33°57' E 130°56'5 9.4
2018-Feb-11 13:00N 33°58' E 131°02'612.2
2018-Feb-11 12:30N 33°55' E 131°08'612.1
2018-Feb-11 12:01N 33°52' E 131°14'612.5
2018-Feb-11 11:30N 33°51' E 131°21'612.7
2018-Feb-11 11:00N 33°49' E 131°29'612.6
2018-Feb-11 10:30N 33°48' E 131°36'612.5
2018-Feb-11 10:00N 33°47' E 131°43'  
Track history (hours):
 
Tides and Currents Weather Stations Pressure Air Temp Water Temp Dewpoint Dewpoint Depression Visibility Wind Speed Wind Dir Waves Ship Positions

Naniwa Maru No.21

Last reported at 2018-Feb-21 09:35 UTC. Time now 2018-Feb-22 03:34 UTC.
Position N 34°28' E 134°31'.

Length 71 m; draft 5.5 m.

Type: Tanker. MMSI: 431301595.

Date/timePositionNaut miles runAvg speedWind from/ knotsBaromVisibWave heightAir tempDewpointWater temp
2018-Feb-21 09:35N 34°28' E 134°31'113.4
2018-Feb-21 09:30N 34°28' E 134°32'1213.1
2018-Feb-21 08:35N 34°33' E 134°45'312.4
2018-Feb-21 08:23N 34°34' E 134°48'511.5
2018-Feb-21 07:59N 34°36' E 134°53'511.3
2018-Feb-21 07:30N 34°37' E 134°60'510.5
2018-Feb-21 07:00N 34°35' E 135°05'612.8
2018-Feb-21 06:30N 34°28' E 135°04'713.1
2018-Feb-21 06:00N 34°22' E 135°02'612.6
2018-Feb-21 05:30N 34°16' E 134°59'713.2
2018-Feb-21 05:00N 34°11' E 135°04'5 1.4
2018-Feb-21 01:41N 34°07' E 135°08'0 1.1
2018-Feb-21 01:30N 34°07' E 135°08'0 0.4
2018-Feb-21 01:01N 34°07' E 135°08'0 0.0
2018-Feb-21 00:29N 34°07' E 135°08'0 0.0
2018-Feb-21 00:00N 34°07' E 135°08'0 0.1
2018-Feb-20 23:30N 34°07' E 135°07'1 1.7
2018-Feb-20 22:59N 34°08' E 135°06'713.5
2018-Feb-20 22:30N 34°08' E 134°58'713.4
2018-Feb-20 21:59N 34°08' E 134°50'1013.7
2018-Feb-20 21:16N 34°13' E 134°40'414.2
2018-Feb-20 21:00N 34°16' E 134°37'713.9
2018-Feb-20 20:30N 34°18' E 134°29'8813.1
2018-Feb-20 13:48N 34°01' E 132°45'514.9
2018-Feb-20 13:30N 33°57' E 132°42'5313.1
2018-Feb-20 09:27N 33°46' E 131°40'614.1
2018-Feb-20 09:00N 33°47' E 131°32'714.3
2018-Feb-20 08:30N 33°49' E 131°24'714.3
2018-Feb-20 08:00N 33°50' E 131°15'714.3
2018-Feb-20 07:30N 33°54' E 131°08'714.2
2018-Feb-20 07:00N 33°58' E 131°01'510.2
2018-Feb-20 06:30N 33°55' E 130°56'4 8.8
2018-Feb-20 06:00N 33°57' E 130°51'613.2
2018-Feb-20 05:31N 33°58' E 130°43'713.9
2018-Feb-20 05:00N 33°57' E 130°35'712.8
2018-Feb-20 04:30N 33°54' E 130°28'713.8
2018-Feb-20 04:00N 33°49' E 130°23'713.3
2018-Feb-20 03:28N 33°43' E 130°17'511.0
2018-Feb-20 03:00N 33°38' E 130°19'4 7.3
2018-Feb-20 02:31N 33°36' E 130°23'0 0.0
2018-Feb-20 02:01N 33°36' E 130°23'0 0.0
2018-Feb-20 01:31N 33°36' E 130°23'0 0.0
2018-Feb-20 00:58N 33°36' E 130°23'0 0.0
2018-Feb-20 00:28N 33°36' E 130°23'0 0.0
2018-Feb-19 23:58N 33°36' E 130°23'1 1.7
2018-Feb-19 23:30N 33°37' E 130°23'2 2.8
2018-Feb-19 22:57N 33°37' E 130°21'0 0.1
2018-Feb-19 22:27N 33°37' E 130°21'0 0.0
2018-Feb-19 21:57N 33°37' E 130°21'0 0.0
2018-Feb-19 21:21N 33°37' E 130°21'0 0.1
2018-Feb-19 20:57N 33°37' E 130°21'0 0.0
2018-Feb-19 20:27N 33°37' E 130°21'2 4.4
2018-Feb-19 20:00N 33°38' E 130°19'611.2
2018-Feb-19 19:30N 33°43' E 130°16'613.2
2018-Feb-19 19:00N 33°49' E 130°19'612.9
2018-Feb-19 18:30N 33°55' E 130°23'612.5
2018-Feb-19 18:00N 33°58' E 130°29'713.0
2018-Feb-19 17:30N 34°01' E 130°37'613.1
2018-Feb-19 17:00N 34°02' E 130°44'611.7
2018-Feb-19 16:30N 33°60' E 130°51'612.8
2018-Feb-19 16:00N 33°54' E 130°55'612.4
2018-Feb-19 15:30N 33°59' E 131°00'611.6
2018-Feb-19 15:00N 33°55' E 131°06'713.2
2018-Feb-19 14:30N 33°52' E 131°13'713.5
2018-Feb-19 14:00N 33°50' E 131°21'712.9
2018-Feb-19 13:28N 33°47' E 131°28'613.6
2018-Feb-19 13:00N 33°44' E 131°35'713.8
2018-Feb-19 12:29N 33°40' E 131°42'714.0
2018-Feb-19 12:00N 33°35' E 131°47'714.5
2018-Feb-19 11:30N 33°27' E 131°47'713.7
2018-Feb-19 10:59N 33°21' E 131°43'4 0.9
2018-Feb-19 06:42N 33°18' E 131°41'4 0.6
2018-Feb-18 23:50N 33°22' E 131°42'0 0.4
2018-Feb-18 23:02N 33°22' E 131°42'112.2
2018-Feb-18 22:58N 33°22' E 131°43'16310.3
2018-Feb-18 07:06N 33°56' E 134°55'114.0
2018-Feb-18 07:00N 33°57' E 134°56'714.0
2018-Feb-18 06:29N 34°03' E 135°02'613.2
2018-Feb-18 06:00N 34°07' E 135°07'0 0.9
2018-Feb-18 05:28N 34°07' E 135°07'0 0.0
2018-Feb-18 04:58N 34°07' E 135°07'0 0.0
2018-Feb-18 04:25N 34°07' E 135°07'0 0.0
2018-Feb-18 03:58N 34°07' E 135°07'0 0.3
2018-Feb-18 03:29N 34°07' E 135°07'510.3
2018-Feb-18 03:00N 34°08' E 135°01'713.2
2018-Feb-18 02:30N 34°08' E 134°53'713.3
2018-Feb-18 02:00N 34°09' E 134°46'813.3
2018-Feb-18 01:22N 34°15' E 134°38'613.3
2018-Feb-18 00:57N 34°17' E 134°32'3 7.5
2018-Feb-18 00:29N 34°20' E 134°30'511.6
2018-Feb-18 00:00N 34°20' E 134°23'8411.1
2018-Feb-17 16:26N 33°60' E 132°45'713.0
2018-Feb-17 15:56N 33°55' E 132°39'5412.6
2018-Feb-17 11:37N 33°47' E 131°35'213.1
2018-Feb-17 11:30N 33°47' E 131°33'713.1
2018-Feb-17 11:00N 33°48' E 131°25'613.0
2018-Feb-17 10:30N 33°50' E 131°18'612.9
2018-Feb-17 10:00N 33°52' E 131°10'613.0
2018-Feb-17 09:30N 33°56' E 131°04'2 4.3
2018-Feb-17 09:00N 33°57' E 131°02'0 0.0
2018-Feb-17 08:31N 33°57' E 131°02'0 0.6
2018-Feb-17 08:01N 33°57' E 131°02'510.6
2018-Feb-17 07:30N 33°55' E 130°56'611.8
2018-Feb-17 07:00N 33°58' E 130°49'713.5
2018-Feb-17 06:30N 33°57' E 130°41'613.1
2018-Feb-17 06:01N 33°56' E 130°34'612.3
2018-Feb-17 05:30N 33°53' E 130°27'713.4
2018-Feb-17 04:59N 33°48' E 130°22'713.7
2018-Feb-17 04:30N 33°43' E 130°17'611.9
2018-Feb-17 04:00N 33°38' E 130°21'2 4.7
2018-Feb-17 03:31N 33°36' E 130°23'0 0.0
2018-Feb-17 02:59N 33°36' E 130°23'0 0.0
2018-Feb-17 02:30N 33°36' E 130°23'0 0.0
2018-Feb-17 02:00N 33°36' E 130°23'0 0.0
2018-Feb-17 01:31N 33°36' E 130°23'0 0.0
2018-Feb-17 00:56N 33°36' E 130°23'0 0.0
2018-Feb-17 00:26N 33°36' E 130°23'1 2.2
2018-Feb-17 00:00N 33°37' E 130°23'612.6
2018-Feb-16 23:30N 33°40' E 130°17'611.7
2018-Feb-16 23:00N 33°46' E 130°20'713.6
2018-Feb-16 22:30N 33°51' E 130°25'713.1
2018-Feb-16 22:00N 33°56' E 130°30'713.0
2018-Feb-16 21:30N 33°59' E 130°37'712.5
2018-Feb-16 20:57N 34°02' E 130°44'511.4
2018-Feb-16 20:30N 34°01' E 130°50'511.0
2018-Feb-16 20:00N 33°56' E 130°53'3 6.1
2018-Feb-16 19:30N 33°56' E 130°56'4 7.7
2018-Feb-16 19:00N 33°59' E 130°60'611.3
2018-Feb-16 18:30N 33°56' E 131°05'612.1
2018-Feb-16 18:00N 33°52' E 131°11'612.2
2018-Feb-16 17:30N 33°51' E 131°19'612.3
2018-Feb-16 17:00N 33°50' E 131°26'612.3
2018-Feb-16 16:30N 33°48' E 131°33'612.0
2018-Feb-16 16:00N 33°47' E 131°40'612.1
2018-Feb-16 15:30N 33°45' E 131°47'51 1.8
2018-Feb-15 10:32N 34°01' E 132°46'115.1
2018-Feb-15 10:27N 34°00' E 132°45'614.2
2018-Feb-15 10:00N 33°56' E 132°40'5212.8
2018-Feb-15 05:56N 33°46' E 131°38'714.1
2018-Feb-15 05:28N 33°48' E 131°30'714.2
2018-Feb-15 05:00N 33°49' E 131°22'714.1
2018-Feb-15 04:30N 33°51' E 131°14'713.9
2018-Feb-15 04:00N 33°54' E 131°07'713.6
2018-Feb-15 03:30N 33°59' E 131°00'5 9.9
2018-Feb-15 03:00N 33°55' E 130°56'4 7.7
2018-Feb-15 02:30N 33°57' E 130°52'612.7
2018-Feb-15 02:00N 33°58' E 130°44'713.5
2018-Feb-15 01:30N 33°57' E 130°36'713.2
2018-Feb-15 01:00N 33°56' E 130°28'713.5
2018-Feb-15 00:30N 33°50' E 130°24'713.2
2018-Feb-14 23:59N 33°45' E 130°18'511.1
2018-Feb-14 23:30N 33°39' E 130°18'511.0
2018-Feb-14 23:00N 33°36' E 130°23'0 0.1
2018-Feb-14 22:28N 33°36' E 130°23'0 0.0
2018-Feb-14 21:58N 33°36' E 130°23'0 0.0
2018-Feb-14 21:28N 33°36' E 130°23'0 0.0
2018-Feb-14 20:58N 33°36' E 130°23'0 0.0
2018-Feb-14 20:28N 33°36' E 130°23'0 0.0
2018-Feb-14 19:58N 33°36' E 130°23'0 0.0
2018-Feb-14 19:28N 33°36' E 130°23'0 0.0
2018-Feb-14 18:58N 33°36' E 130°23'0 0.0
2018-Feb-14 18:28N 33°36' E 130°23'0 0.0
2018-Feb-14 17:58N 33°36' E 130°23'0 0.0
2018-Feb-14 17:28N 33°36' E 130°23'0 0.0
2018-Feb-14 16:58N 33°36' E 130°23'0 0.0
2018-Feb-14 16:28N 33°36' E 130°23'0 0.0
2018-Feb-14 15:58N 33°36' E 130°23'0 0.0
2018-Feb-14 15:28N 33°36' E 130°23'0 0.0
2018-Feb-14 14:58N 33°36' E 130°23'0 0.0
2018-Feb-14 14:28N 33°36' E 130°23'0 0.0
2018-Feb-14 13:58N 33°36' E 130°23'0 0.0
2018-Feb-14 13:28N 33°36' E 130°23'0 0.0
2018-Feb-14 12:58N 33°36' E 130°23'0 0.0
2018-Feb-14 12:28N 33°36' E 130°23'0 0.0
2018-Feb-14 11:58N 33°36' E 130°23'0 0.0
2018-Feb-14 11:28N 33°36' E 130°23'0 0.0
2018-Feb-14 10:58N 33°36' E 130°23'0 0.0
2018-Feb-14 10:28N 33°36' E 130°23'0 0.0
2018-Feb-14 09:58N 33°36' E 130°23'0 0.0
2018-Feb-14 09:28N 33°36' E 130°23'0 0.0
2018-Feb-14 08:58N 33°36' E 130°23'0 0.0
2018-Feb-14 08:28N 33°36' E 130°23'0 0.0
2018-Feb-14 07:58N 33°36' E 130°23'0 0.0
2018-Feb-14 07:28N 33°36' E 130°23'0 0.0
2018-Feb-14 06:58N 33°36' E 130°23'0 0.0
2018-Feb-14 06:28N 33°36' E 130°23'0 0.0
2018-Feb-14 05:58N 33°36' E 130°23'0 0.2
2018-Feb-14 05:29N 33°36' E 130°23'2 3.2
2018-Feb-14 05:00N 33°37' E 130°22'1 2.8
2018-Feb-14 04:30N 33°36' E 130°23'0 0.0
2018-Feb-14 03:59N 33°36' E 130°23'0 0.0
2018-Feb-14 03:29N 33°36' E 130°23'0 0.0
2018-Feb-14 02:59N 33°36' E 130°23'0 0.0
2018-Feb-14 02:29N 33°36' E 130°23'0 0.0
2018-Feb-14 02:00N 33°36' E 130°23'3 6.6
2018-Feb-14 01:30N 33°38' E 130°20'510.8
2018-Feb-14 01:00N 33°43' E 130°17'713.2
2018-Feb-14 00:30N 33°48' E 130°22'712.8
2018-Feb-14 00:00N 33°53' E 130°27'612.2
2018-Feb-13 23:31N 33°57' E 130°32'713.3
2018-Feb-13 22:59N 34°01' E 130°39'613.1
2018-Feb-13 22:31N 34°02' E 130°46'510.8
2018-Feb-13 22:00N 33°58' E 130°50'510.3
2018-Feb-13 21:30N 33°56' E 130°56'5 9.7
2018-Feb-13 21:00N 33°59' E 131°00'713.3
2018-Feb-13 20:31N 33°55' E 131°07'713.4
2018-Feb-13 20:00N 33°52' E 131°14'714.1
2018-Feb-13 19:30N 33°50' E 131°23'713.9
2018-Feb-13 19:00N 33°49' E 131°31'713.9
2018-Feb-13 18:30N 33°47' E 131°39'713.6
2018-Feb-13 18:00N 33°46' E 131°47'2013.5
2018-Feb-13 16:29N 33°43' E 132°11'33 1.2
2018-Feb-12 13:29N 33°60' E 132°45'713.5
2018-Feb-12 12:59N 33°55' E 132°39'5612.9
2018-Feb-12 08:36N 33°48' E 131°32'113.5
2018-Feb-12 08:30N 33°48' E 131°30'713.6
2018-Feb-12 08:00N 33°49' E 131°22'713.7
2018-Feb-12 07:30N 33°51' E 131°14'713.5
2018-Feb-12 07:00N 33°54' E 131°07'713.5
2018-Feb-12 06:30N 33°58' E 131°01'713.6
2018-Feb-12 06:00N 33°54' E 130°54'713.5
2018-Feb-12 05:30N 33°58' E 130°47'713.8
2018-Feb-12 05:01N 33°57' E 130°39'713.8
2018-Feb-12 04:31N 33°56' E 130°31'612.4
2018-Feb-12 04:00N 33°51' E 130°26'714.0
2018-Feb-12 03:30N 33°46' E 130°20'612.3
2018-Feb-12 03:00N 33°41' E 130°17'611.9
2018-Feb-12 02:30N 33°37' E 130°22'1 2.1
2018-Feb-12 01:59N 33°36' E 130°23'0 0.0
2018-Feb-12 01:28N 33°36' E 130°23'0 0.0
2018-Feb-12 00:58N 33°36' E 130°23'0 0.0
2018-Feb-12 00:28N 33°36' E 130°23'0 0.0
2018-Feb-11 23:58N 33°36' E 130°23'0 0.0
2018-Feb-11 23:28N 33°36' E 130°23'0 0.0
2018-Feb-11 22:58N 33°36' E 130°23'1 2.0
2018-Feb-11 22:30N 33°37' E 130°23'1 2.8
2018-Feb-11 22:00N 33°37' E 130°21'0 0.0
2018-Feb-11 21:25N 33°37' E 130°21'0 0.0
2018-Feb-11 20:55N 33°37' E 130°21'0 0.0
2018-Feb-11 20:25N 33°37' E 130°21'0 0.0
2018-Feb-11 19:55N 33°37' E 130°21'0 0.0
2018-Feb-11 19:25N 33°37' E 130°21'0 0.0
2018-Feb-11 18:56N 33°37' E 130°21'2 3.7
2018-Feb-11 18:30N 33°38' E 130°20'611.8
2018-Feb-11 18:00N 33°43' E 130°16'612.0
2018-Feb-11 17:30N 33°49' E 130°19'611.8
2018-Feb-11 17:00N 33°54' E 130°22'510.2
2018-Feb-11 16:30N 33°57' E 130°27'5 9.8
2018-Feb-11 16:00N 33°59' E 130°32'5 9.8
2018-Feb-11 15:30N 34°01' E 130°38'510.4
2018-Feb-11 15:00N 34°02' E 130°44'510.6
2018-Feb-11 14:30N 34°02' E 130°50'611.1
2018-Feb-11 14:00N 33°56' E 130°53'3 6.4
2018-Feb-11 13:30N 33°57' E 130°56'5 9.4
2018-Feb-11 13:00N 33°58' E 131°02'612.2
2018-Feb-11 12:30N 33°55' E 131°08'612.1
2018-Feb-11 12:01N 33°52' E 131°14'612.5
2018-Feb-11 11:30N 33°51' E 131°21'612.7
2018-Feb-11 11:00N 33°49' E 131°29'612.6
2018-Feb-11 10:30N 33°48' E 131°36'612.5
2018-Feb-11 10:00N 33°47' E 131°43'  

Dump ship's entire track history